Time;durP1;ratioP1;P1;durP2;ratioP2;P2;SDS_P1;SDS_P2;PMS_P1;PMS_P2;Temp;Humidity;BMP_temperature;BMP_pressure;BME280_temperature;BME280_humidity;BME280_pressure;Samples;Min_cycle;Max_cycle;Signal;HPM_P1;HPM_P2
2023/05/10 00:02:19;;;;;;;1.63;1.53;;;25.50;64.40;;;;;;5081445;28;21062;-71
2023/05/10 00:04:47;;;;;;;2.70;2.10;;;25.50;64.40;;;;;;5092406;28;20435;-72
2023/05/10 00:07:17;;;;;;;1.60;1.50;;;25.50;64.40;;;;;;5075156;28;20456;-72
2023/05/10 00:09:45;;;;;;;1.90;1.80;;;25.50;64.40;;;;;;5052328;28;21021;-72
2023/05/10 00:12:14;;;;;;;1.83;1.70;;;25.50;64.40;;;;;;5062248;28;20457;-73
2023/05/10 00:14:43;;;;;;;1.83;1.70;;;25.50;64.40;;;;;;5062115;28;20513;-72
2023/05/10 00:17:11;;;;;;;1.60;1.50;;;25.50;64.40;;;;;;5091594;28;21115;-72
2023/05/10 00:19:39;;;;;;;2.37;1.57;;;25.50;64.50;;;;;;5079240;28;20522;-72
2023/05/10 00:22:07;;;;;;;1.70;1.60;;;25.50;64.40;;;;;;5085751;28;20900;-74
2023/05/10 00:24:35;;;;;;;1.43;1.33;;;25.50;64.50;;;;;;5071801;28;20546;-73
2023/05/10 00:27:04;;;;;;;1.60;1.50;;;25.50;64.50;;;;;;5072975;28;21034;-73
2023/05/10 00:29:33;;;;;;;1.67;1.57;;;25.40;64.60;;;;;;5072404;28;20475;-72
2023/05/10 00:32:01;;;;;;;1.57;1.47;;;25.40;64.60;;;;;;5074894;28;20451;-72
2023/05/10 00:34:30;;;;;;;1.77;1.30;;;25.40;64.60;;;;;;5058679;28;20447;-73
2023/05/10 00:36:58;;;;;;;1.77;1.63;;;25.40;64.60;;;;;;5054471;28;20476;-72
2023/05/10 00:39:28;;;;;;;1.77;1.67;;;25.40;64.60;;;;;;5072614;28;20495;-73
2023/05/10 00:41:56;;;;;;;2.03;1.73;;;25.40;64.60;;;;;;5073055;28;20427;-73
2023/05/10 00:44:25;;;;;;;1.23;1.23;;;25.40;64.60;;;;;;5072343;28;20440;-72
2023/05/10 00:46:54;;;;;;;1.40;1.40;;;25.40;64.60;;;;;;5054278;28;20542;-72
2023/05/10 00:49:23;;;;;;;1.50;1.40;;;25.40;64.60;;;;;;5072565;28;20448;-72
2023/05/10 00:51:51;;;;;;;1.73;1.30;;;25.40;64.60;;;;;;5071751;28;20426;-72
2023/05/10 00:54:21;;;;;;;1.70;1.60;;;25.40;64.60;;;;;;5054038;28;21047;-72
2023/05/10 00:56:49;;;;;;;1.27;1.20;;;25.40;64.70;;;;;;5072168;28;20464;-72
2023/05/10 00:59:18;;;;;;;1.70;1.57;;;25.40;64.70;;;;;;5072108;28;20471;-72
2023/05/10 01:01:47;;;;;;;1.60;1.50;;;25.40;64.70;;;;;;5054205;28;20517;-73
2023/05/10 01:04:17;;;;;;;1.60;1.50;;;25.40;64.70;;;;;;5056893;28;20457;-72
2023/05/10 01:06:45;;;;;;;1.60;1.50;;;25.40;64.70;;;;;;5071933;28;20437;-73
2023/05/10 01:09:13;;;;;;;1.47;1.33;;;25.40;64.70;;;;;;5072617;28;20489;-73
2023/05/10 01:11:42;;;;;;;1.70;1.60;;;25.30;64.70;;;;;;5067816;28;20455;-72
2023/05/10 01:14:10;;;;;;;1.53;1.40;;;25.30;64.70;;;;;;5053451;28;20838;-72
2023/05/10 01:16:41;;;;;;;1.20;1.20;;;25.30;64.70;;;;;;5064500;28;20491;-72
2023/05/10 01:19:16;;;;;;;1.53;1.43;;;25.30;64.70;;;;;;5038103;28;20495;-73
2023/05/10 01:21:51;;;;;;;1.40;1.30;;;25.30;64.70;;;;;;5071526;28;20448;-73
2023/05/10 01:24:56;;;;;;;1.57;1.47;;;25.30;64.70;;;;;;5053493;28;20535;-72
2023/05/10 01:28:13;;;;;;;1.57;1.47;;;25.30;64.70;;;;;;5050391;28;21058;-72
2023/05/10 01:31:07;;;;;;;1.63;1.53;;;25.30;64.80;;;;;;5071584;28;20464;-71
2023/05/10 01:33:42;;;;;;;1.63;1.53;;;25.30;64.80;;;;;;5060348;28;20529;-72
2023/05/10 01:36:25;;;;;;;1.60;1.50;;;25.30;64.80;;;;;;5053403;28;20455;-73
2023/05/10 01:38:59;;;;;;;2.70;1.40;;;25.30;64.80;;;;;;5052959;28;20477;-73
2023/05/10 01:41:37;;;;;;;1.30;1.20;;;25.30;64.80;;;;;;5071853;28;20992;-73
2023/05/10 01:44:17;;;;;;;1.60;1.60;;;25.30;64.80;;;;;;5052872;28;20538;-73
2023/05/10 01:46:54;;;;;;;1.37;1.27;;;25.30;64.80;;;;;;5070919;28;20941;-73
2023/05/10 01:49:26;;;;;;;1.83;1.33;;;25.20;64.80;;;;;;5071577;28;20809;-72
2023/05/10 01:52:00;;;;;;;1.43;1.07;;;25.30;64.80;;;;;;5069679;28;20447;-72
2023/05/10 01:54:30;;;;;;;1.57;1.47;;;25.20;64.80;;;;;;5070966;28;20490;-72
2023/05/10 01:57:04;;;;;;;1.33;1.23;;;25.20;64.80;;;;;;5053347;28;20507;-72
2023/05/10 01:59:39;;;;;;;1.63;1.53;;;25.20;64.80;;;;;;5052358;28;20463;-71
2023/05/10 02:02:11;;;;;;;1.43;1.33;;;25.20;64.90;;;;;;5052766;28;20952;-72
2023/05/10 02:04:42;;;;;;;1.50;1.40;;;25.20;64.90;;;;;;5071734;28;20479;-71
2023/05/10 02:07:12;;;;;;;1.30;1.20;;;25.20;64.90;;;;;;5032589;28;20452;-71
2023/05/10 02:09:43;;;;;;;1.30;1.23;;;25.20;64.90;;;;;;5074252;28;20481;-72
2023/05/10 02:12:14;;;;;;;1.67;1.57;;;25.20;64.90;;;;;;5077986;28;20450;-72
2023/05/10 02:14:43;;;;;;;1.50;1.40;;;25.20;64.90;;;;;;5070451;28;20500;-71
2023/05/10 02:17:12;;;;;;;1.00;1.00;;;25.20;64.90;;;;;;5077297;28;20454;-71
2023/05/10 02:19:44;;;;;;;1.37;1.27;;;25.20;64.90;;;;;;5070213;28;21004;-72
2023/05/10 02:22:13;;;;;;;1.37;1.27;;;25.20;64.90;;;;;;5052617;28;20555;-72
2023/05/10 02:24:42;;;;;;;1.43;1.33;;;25.20;64.90;;;;;;5076989;28;21009;-70
2023/05/10 02:27:11;;;;;;;1.30;1.30;;;25.20;64.90;;;;;;5071472;28;20485;-71
2023/05/10 02:29:40;;;;;;;1.40;1.30;;;25.20;64.90;;;;;;5074324;28;20946;-71
2023/05/10 02:32:11;;;;;;;1.27;1.10;;;25.20;64.90;;;;;;5070485;28;20451;-72
2023/05/10 02:34:41;;;;;;;1.10;1.10;;;25.20;64.90;;;;;;5070557;28;21031;-71
2023/05/10 02:37:10;;;;;;;1.40;1.30;;;25.20;64.90;;;;;;5070295;28;20480;-71
2023/05/10 02:39:43;;;;;;;1.20;1.10;;;25.20;64.90;;;;;;5069800;28;20499;-72
2023/05/10 02:42:17;;;;;;;1.37;1.27;;;25.10;64.90;;;;;;5069822;28;20469;-72
2023/05/10 02:44:48;;;;;;;0.90;0.90;;;25.10;64.90;;;;;;5069687;28;20460;-72
2023/05/10 02:47:16;;;;;;;1.40;1.30;;;25.10;64.90;;;;;;5053074;28;20461;-72
2023/05/10 02:49:46;;;;;;;2.17;2.07;;;25.10;64.90;;;;;;5070775;28;20498;-72
2023/05/10 02:52:24;;;;;;;1.30;1.20;;;25.20;64.90;;;;;;5069886;28;20944;-72
2023/05/10 02:54:56;;;;;;;1.20;1.17;;;25.10;64.90;;;;;;5068619;28;20484;-71
2023/05/10 02:57:28;;;;;;;1.10;1.00;;;25.10;64.90;;;;;;5052744;28;20542;-71
2023/05/10 02:59:56;;;;;;;1.17;1.07;;;25.10;64.90;;;;;;5051298;28;20556;-72
2023/05/10 03:02:25;;;;;;;1.20;1.20;;;25.10;64.90;;;;;;5070077;28;21012;-72
2023/05/10 03:04:54;;;;;;;1.40;1.30;;;25.10;64.90;;;;;;5079805;28;20956;-72
2023/05/10 03:07:23;;;;;;;1.60;1.50;;;25.10;64.90;;;;;;5066642;28;20472;-72
2023/05/10 03:09:52;;;;;;;1.10;1.10;;;25.10;64.90;;;;;;5070974;28;20439;-72
2023/05/10 03:12:32;;;;;;;0.80;0.80;;;25.10;64.90;;;;;;5069360;28;20452;-71
2023/05/10 03:15:12;;;;;;;1.20;1.10;;;25.10;64.90;;;;;;5053141;28;20486;-72
2023/05/10 03:17:47;;;;;;;0.97;0.97;;;25.10;64.90;;;;;;5073583;28;20549;-72
2023/05/10 03:20:25;;;;;;;1.23;1.20;;;25.10;64.90;;;;;;5049744;28;20528;-72
2023/05/10 03:23:01;;;;;;;1.07;1.07;;;25.10;64.90;;;;;;5067775;28;20463;-72
2023/05/10 03:25:32;;;;;;;1.20;1.10;;;25.10;64.90;;;;;;5074289;28;20508;-72
2023/05/10 03:28:03;;;;;;;0.77;0.77;;;25.10;64.90;;;;;;5054505;28;20521;-73
2023/05/10 03:30:32;;;;;;;1.10;1.00;;;25.10;64.90;;;;;;5073550;28;20464;-71
2023/05/10 03:33:05;;;;;;;0.90;0.90;;;25.10;64.90;;;;;;5072765;28;20484;-72
2023/05/10 03:35:38;;;;;;;1.20;1.20;;;25.10;64.90;;;;;;5055915;28;20465;-73
2023/05/10 03:38:06;;;;;;;1.30;1.20;;;25.10;64.90;;;;;;5055222;28;20457;-73
2023/05/10 03:40:34;;;;;;;1.30;1.20;;;25.10;64.90;;;;;;5056026;28;20572;-73
2023/05/10 03:43:03;;;;;;;1.20;1.20;;;25.10;64.90;;;;;;5053830;28;20446;-72
2023/05/10 03:45:31;;;;;;;1.10;1.10;;;25.10;64.90;;;;;;5054996;28;20531;-73
2023/05/10 03:48:00;;;;;;;1.17;1.10;;;25.10;64.90;;;;;;5056038;28;20456;-71
2023/05/10 03:50:28;;;;;;;1.20;1.10;;;25.10;64.90;;;;;;5055729;28;20444;-72
2023/05/10 03:52:58;;;;;;;1.10;1.00;;;25.00;64.90;;;;;;5054850;28;20501;-73
2023/05/10 03:55:29;;;;;;;0.90;0.90;;;25.00;64.90;;;;;;5074589;28;20459;-73
2023/05/10 03:57:57;;;;;;;1.27;1.20;;;25.00;64.90;;;;;;5055439;28;20462;-73
2023/05/10 04:00:27;;;;;;;2.10;0.93;;;25.00;64.90;;;;;;5057793;28;20526;-72
2023/05/10 04:02:56;;;;;;;1.27;1.17;;;25.00;64.90;;;;;;5061051;28;20464;-72
2023/05/10 04:05:24;;;;;;;0.90;0.90;;;25.00;64.90;;;;;;5053549;28;20535;-72
2023/05/10 04:07:53;;;;;;;1.10;1.00;;;25.00;64.90;;;;;;5040692;28;20450;-72
2023/05/10 04:10:23;;;;;;;1.60;1.03;;;25.00;64.90;;;;;;5055084;28;20508;-71
2023/05/10 04:12:51;;;;;;;1.30;1.20;;;25.00;64.90;;;;;;5065668;28;20458;-72
2023/05/10 04:15:19;;;;;;;0.90;0.90;;;25.00;64.90;;;;;;5071603;28;20451;-71
2023/05/10 04:17:48;;;;;;;0.90;0.90;;;25.00;64.90;;;;;;5065893;28;20457;-71
2023/05/10 04:20:16;;;;;;;1.10;1.10;;;25.00;64.90;;;;;;5063890;28;20494;-72
2023/05/10 04:22:44;;;;;;;2.83;1.00;;;25.00;64.90;;;;;;5070861;28;20455;-71
2023/05/10 04:25:13;;;;;;;1.00;1.00;;;25.00;64.90;;;;;;5065849;28;20813;-71
2023/05/10 04:27:42;;;;;;;0.90;0.90;;;25.00;64.90;;;;;;5072780;28;20494;-71
2023/05/10 04:30:11;;;;;;;1.53;1.00;;;25.00;64.90;;;;;;5075498;28;20867;-70
2023/05/10 04:32:39;;;;;;;1.10;1.10;;;25.00;64.90;;;;;;5075583;28;20454;-71
2023/05/10 04:35:09;;;;;;;0.90;0.90;;;25.00;64.90;;;;;;5064086;28;20523;-72
2023/05/10 04:37:38;;;;;;;1.13;1.13;;;25.00;64.90;;;;;;5057536;28;20462;-73
2023/05/10 04:40:07;;;;;;;1.37;1.00;;;25.00;64.90;;;;;;5068340;28;20588;-72
2023/05/10 04:42:35;;;;;;;0.80;0.80;;;25.00;64.90;;;;;;5063000;28;21047;-73
2023/05/10 04:45:06;;;;;;;0.93;0.90;;;25.00;64.90;;;;;;5070987;28;20553;-73
2023/05/10 04:47:36;;;;;;;1.10;1.00;;;25.00;64.90;;;;;;5067750;28;20592;-72
2023/05/10 04:50:07;;;;;;;1.10;1.10;;;25.00;64.90;;;;;;5067270;28;20456;-73
2023/05/10 04:52:36;;;;;;;1.27;1.00;;;25.00;65.00;;;;;;5063839;28;20458;-74
2023/05/10 04:55:07;;;;;;;1.20;1.10;;;25.00;65.00;;;;;;5069827;28;20446;-72
2023/05/10 04:57:36;;;;;;;1.50;1.20;;;25.00;65.00;;;;;;5088158;28;20445;-72
2023/05/10 05:00:08;;;;;;;1.90;0.83;;;25.00;65.10;;;;;;5065446;28;20518;-74
2023/05/10 05:02:36;;;;;;;0.90;0.90;;;25.00;65.10;;;;;;5063072;28;20488;-74
2023/05/10 05:05:06;;;;;;;1.30;1.20;;;25.00;65.10;;;;;;5066396;28;20451;-73
2023/05/10 05:07:35;;;;;;;1.67;1.23;;;25.00;65.20;;;;;;5069894;28;20454;-73
2023/05/10 05:10:04;;;;;;;1.03;1.03;;;25.00;65.10;;;;;;5064171;28;20454;-74
2023/05/10 05:12:33;;;;;;;1.27;1.10;;;25.00;65.10;;;;;;5056985;28;20463;-74
2023/05/10 05:15:06;;;;;;;1.00;0.80;;;25.00;65.10;;;;;;5059102;28;20457;-73
2023/05/10 05:17:36;;;;;;;2.27;1.10;;;25.00;65.20;;;;;;5040945;28;20460;-73
2023/05/10 05:20:06;;;;;;;2.80;0.97;;;25.00;65.20;;;;;;5063242;28;20463;-73
2023/05/10 05:22:34;;;;;;;2.10;1.10;;;25.00;65.20;;;;;;5046383;28;20463;-73
2023/05/10 05:25:03;;;;;;;2.00;1.00;;;25.00;65.10;;;;;;5071160;28;20918;-73
2023/05/10 05:27:31;;;;;;;1.07;1.00;;;25.00;65.10;;;;;;5070482;28;20487;-73
2023/05/10 05:30:00;;;;;;;1.63;1.00;;;25.00;65.20;;;;;;5069024;28;20462;-74
2023/05/10 05:32:29;;;;;;;1.00;1.00;;;25.00;65.10;;;;;;5061737;28;20526;-74
2023/05/10 05:34:57;;;;;;;1.60;0.93;;;25.00;65.10;;;;;;5062417;28;20454;-73
2023/05/10 05:37:26;;;;;;;1.20;1.10;;;25.00;65.10;;;;;;5074187;28;20549;-73
2023/05/10 05:39:54;;;;;;;4.03;1.60;;;25.00;65.10;;;;;;5068305;28;20479;-73
2023/05/10 05:42:23;;;;;;;1.97;1.10;;;25.00;65.10;;;;;;5061655;28;20453;-73
2023/05/10 05:44:51;;;;;;;2.53;1.03;;;25.00;65.10;;;;;;5057476;28;21141;-73
2023/05/10 05:47:19;;;;;;;1.27;1.17;;;25.00;65.10;;;;;;5059044;28;20471;-73
2023/05/10 05:49:49;;;;;;;1.90;1.37;;;25.00;65.10;;;;;;5065237;28;20451;-75
2023/05/10 05:52:17;;;;;;;1.23;0.90;;;25.00;65.20;;;;;;5073554;28;20475;-75
2023/05/10 05:54:45;;;;;;;1.20;1.00;;;25.00;65.40;;;;;;5053022;28;20454;-73
2023/05/10 05:57:13;;;;;;;1.53;1.00;;;25.00;65.50;;;;;;5071668;28;20792;-76
2023/05/10 05:59:43;;;;;;;1.10;1.10;;;25.00;65.60;;;;;;5069607;28;21275;-77
2023/05/10 06:02:12;;;;;;;2.67;1.10;;;25.00;65.60;;;;;;5068673;28;20464;-76
2023/05/10 06:04:40;;;;;;;1.60;1.20;;;25.00;65.60;;;;;;5063466;28;20472;-77
2023/05/10 06:07:13;;;;;;;1.43;1.27;;;25.10;65.50;;;;;;5057110;28;20874;-77
2023/05/10 06:09:41;;;;;;;2.10;1.10;;;25.00;65.60;;;;;;5066264;28;20455;-76
2023/05/10 06:12:09;;;;;;;1.40;1.17;;;25.10;65.60;;;;;;5051024;28;20466;-76
2023/05/10 06:14:37;;;;;;;2.87;1.30;;;25.10;65.40;;;;;;5068245;28;20490;-77
2023/05/10 06:17:06;;;;;;;1.10;1.00;;;25.10;65.50;;;;;;5072893;28;20450;-78
2023/05/10 06:19:35;;;;;;;2.10;1.17;;;25.10;65.50;;;;;;5070592;28;20442;-78
2023/05/10 06:22:03;;;;;;;4.00;1.20;;;25.20;65.40;;;;;;5052546;28;20522;-77
2023/05/10 06:24:33;;;;;;;0.80;0.73;;;25.10;65.40;;;;;;5070827;28;20550;-77
2023/05/10 06:27:01;;;;;;;1.10;1.00;;;25.20;65.30;;;;;;5077951;28;21042;-77
2023/05/10 06:29:29;;;;;;;1.10;1.00;;;25.20;65.30;;;;;;5069445;28;20448;-75
2023/05/10 06:31:58;;;;;;;3.03;1.43;;;25.20;65.20;;;;;;5070185;28;20516;-75
2023/05/10 06:34:26;;;;;;;1.43;0.80;;;25.20;65.20;;;;;;5068824;28;20541;-75
2023/05/10 06:36:55;;;;;;;1.90;0.80;;;25.20;65.10;;;;;;5069851;28;20452;-75
2023/05/10 06:39:23;;;;;;;0.80;0.80;;;25.20;65.20;;;;;;5070954;28;20444;-76
2023/05/10 06:41:52;;;;;;;2.30;1.10;;;25.30;65.10;;;;;;5069012;28;20471;-75
2023/05/10 06:44:21;;;;;;;0.67;0.67;;;25.30;65.10;;;;;;5064993;28;20450;-76
2023/05/10 06:46:49;;;;;;;0.60;0.60;;;25.30;65.10;;;;;;5071890;28;20536;-75
2023/05/10 06:49:18;;;;;;;1.47;0.80;;;25.30;65.10;;;;;;5069464;28;20502;-76
2023/05/10 06:51:46;;;;;;;1.60;0.83;;;25.30;65.00;;;;;;5039453;28;20466;-77
2023/05/10 06:54:14;;;;;;;1.00;0.80;;;25.30;64.90;;;;;;5074419;28;20458;-77
2023/05/10 06:56:42;;;;;;;2.90;0.93;;;25.30;64.90;;;;;;5073256;28;20525;-76
2023/05/10 06:59:13;;;;;;;1.90;1.00;;;25.30;64.90;;;;;;5074187;28;20478;-76
2023/05/10 07:01:41;;;;;;;1.30;0.77;;;25.30;64.90;;;;;;5073128;28;20486;-76
2023/05/10 07:04:09;;;;;;;0.80;0.80;;;25.40;64.80;;;;;;5075623;28;20462;-76
2023/05/10 07:06:37;;;;;;;1.07;0.83;;;25.40;64.80;;;;;;5056132;28;21009;-78
2023/05/10 07:09:07;;;;;;;1.37;0.80;;;25.40;64.80;;;;;;5073571;28;20470;-76
2023/05/10 07:11:37;;;;;;;0.83;0.80;;;25.40;64.80;;;;;;5074081;28;21027;-75
2023/05/10 07:14:05;;;;;;;2.07;1.10;;;25.40;64.80;;;;;;5054181;28;20451;-77
2023/05/10 07:16:34;;;;;;;3.50;1.80;;;25.40;64.80;;;;;;5079156;28;20749;-78
2023/05/10 07:19:05;;;;;;;1.00;0.90;;;25.40;64.60;;;;;;5068868;28;20499;-78
2023/05/10 07:21:33;;;;;;;0.97;0.97;;;25.40;64.80;;;;;;5073293;28;20481;-76
2023/05/10 07:24:02;;;;;;;1.13;0.80;;;25.40;64.80;;;;;;5069879;28;20459;-77
2023/05/10 07:26:30;;;;;;;2.00;1.60;;;25.40;64.80;;;;;;5074152;28;20510;-76
2023/05/10 07:28:59;;;;;;;1.60;1.07;;;25.40;64.70;;;;;;5073187;28;20445;-76
2023/05/10 07:31:27;;;;;;;1.33;1.00;;;25.40;64.60;;;;;;5072599;28;20459;-78
2023/05/10 07:33:57;;;;;;;1.80;0.90;;;25.40;64.70;;;;;;5073339;28;20505;-80
2023/05/10 07:36:25;;;;;;;0.93;0.83;;;25.40;64.60;;;;;;5073926;28;20449;-75
2023/05/10 07:38:53;;;;;;;0.93;0.83;;;25.50;64.40;;;;;;5072900;28;20455;-75
2023/05/10 07:41:22;;;;;;;1.90;0.90;;;25.50;64.30;;;;;;5073242;28;20484;-75
2023/05/10 07:43:50;;;;;;;0.70;0.67;;;25.50;64.40;;;;;;5071237;28;20529;-75
2023/05/10 07:46:19;;;;;;;1.03;0.90;;;25.50;64.40;;;;;;5072923;28;20461;-76
2023/05/10 07:48:47;;;;;;;1.00;0.90;;;25.50;64.40;;;;;;5073074;28;20451;-77
2023/05/10 07:51:17;;;;;;;0.90;0.90;;;25.50;64.30;;;;;;5072540;28;20943;-75
2023/05/10 07:53:45;;;;;;;1.53;0.90;;;25.50;64.30;;;;;;5072843;28;20512;-74
2023/05/10 07:56:25;;;;;;;1.60;0.80;;;25.50;64.30;;;;;;5072919;28;20463;-76
2023/05/10 07:58:53;;;;;;;0.70;0.70;;;25.50;64.30;;;;;;5063720;28;20435;-75
2023/05/10 08:01:21;;;;;;;0.80;0.70;;;25.50;64.30;;;;;;5067909;28;20592;-75
2023/05/10 08:03:50;;;;;;;0.90;0.70;;;25.50;64.30;;;;;;5073169;28;20871;-77
2023/05/10 08:06:21;;;;;;;1.07;1.00;;;25.50;64.30;;;;;;5075431;28;20961;-77
2023/05/10 08:08:50;;;;;;;0.90;0.77;;;25.50;64.20;;;;;;5080047;28;21025;-77
2023/05/10 08:11:18;;;;;;;1.57;1.10;;;25.50;64.30;;;;;;5072382;28;20985;-76
2023/05/10 08:13:47;;;;;;;1.10;1.00;;;25.50;64.20;;;;;;5072131;28;20454;-76
2023/05/10 08:16:15;;;;;;;1.10;0.80;;;25.50;64.20;;;;;;5072010;28;20453;-80
2023/05/10 08:18:44;;;;;;;1.17;0.80;;;25.50;64.10;;;;;;5072890;28;20491;-80
2023/05/10 08:21:13;;;;;;;0.90;0.90;;;25.50;64.10;;;;;;5067191;28;20471;-79
2023/05/10 08:23:43;;;;;;;0.60;0.60;;;25.60;64.10;;;;;;5068207;28;20455;-79
2023/05/10 08:26:12;;;;;;;2.30;0.70;;;25.60;64.10;;;;;;5069929;28;21088;-77
2023/05/10 08:28:40;;;;;;;1.00;0.90;;;25.60;64.00;;;;;;5065796;28;20859;-79
2023/05/10 08:31:08;;;;;;;1.60;0.70;;;25.60;64.10;;;;;;5075625;28;20472;-77
2023/05/10 08:33:37;;;;;;;0.90;0.73;;;25.60;64.00;;;;;;5072101;28;20436;-79
2023/05/10 08:36:05;;;;;;;1.10;0.97;;;25.60;64.00;;;;;;5072063;28;20966;-78
2023/05/10 08:38:33;;;;;;;1.83;0.87;;;25.60;63.90;;;;;;5071379;28;20492;-78
2023/05/10 08:41:03;;;;;;;1.03;0.93;;;25.60;63.90;;;;;;5072451;28;20459;-78
2023/05/10 08:43:32;;;;;;;1.40;0.70;;;25.60;63.90;;;;;;5074614;28;20475;-81
2023/05/10 08:46:02;;;;;;;0.63;0.57;;;25.70;63.90;;;;;;5066456;28;20464;-80
2023/05/10 08:48:31;;;;;;;0.90;0.90;;;25.70;63.80;;;;;;5061664;28;20446;-81
2023/05/10 08:51:01;;;;;;;0.70;0.70;;;25.70;63.80;;;;;;5071681;28;20484;-79
2023/05/10 08:53:31;;;;;;;0.93;0.70;;;25.70;63.80;;;;;;5066687;28;20447;-78
2023/05/10 08:56:00;;;;;;;1.30;0.70;;;25.70;63.70;;;;;;5074403;28;20453;-78
2023/05/10 08:58:29;;;;;;;1.30;0.80;;;25.70;63.70;;;;;;5062068;28;20789;-76
2023/05/10 09:00:58;;;;;;;0.70;0.70;;;25.70;63.60;;;;;;5071119;28;20542;-79
2023/05/10 09:03:27;;;;;;;1.90;0.77;;;25.70;63.60;;;;;;5071298;28;20454;-77
2023/05/10 09:05:56;;;;;;;0.73;0.70;;;25.80;63.60;;;;;;5071509;28;20453;-78
2023/05/10 09:08:26;;;;;;;1.07;0.97;;;25.80;63.60;;;;;;5071683;28;20499;-78
2023/05/10 09:10:55;;;;;;;0.60;0.60;;;25.80;63.60;;;;;;5053324;28;20485;-77
2023/05/10 09:13:24;;;;;;;0.87;0.70;;;25.80;63.50;;;;;;5070198;28;20456;-77
2023/05/10 09:15:54;;;;;;;1.53;0.80;;;25.80;63.50;;;;;;5070662;28;20491;-74
2023/05/10 09:18:22;;;;;;;1.73;1.00;;;25.90;63.50;;;;;;5063325;28;20556;-74
2023/05/10 09:20:53;;;;;;;0.60;0.60;;;25.90;63.40;;;;;;5066399;28;20962;-75
2023/05/10 09:23:21;;;;;;;0.90;0.80;;;25.90;63.40;;;;;;5066297;28;20472;-80
2023/05/10 09:26:02;;;;;;;0.70;0.60;;;25.90;63.40;;;;;;5071328;28;20481;-79
2023/05/10 09:28:33;;;;;;;3.33;0.77;;;25.90;63.40;;;;;;5067986;28;20512;-76
2023/05/10 09:31:02;;;;;;;1.07;1.07;;;25.90;63.40;;;;;;5062602;28;20438;-76
2023/05/10 09:33:45;;;;;;;1.30;0.60;;;25.90;63.40;;;;;;5067661;28;20475;-77
2023/05/10 09:36:13;;;;;;;1.67;1.57;;;25.90;63.40;;;;;;5062464;28;20496;-75
2023/05/10 09:38:48;;;;;;;1.47;1.10;;;25.90;63.40;;;;;;5050616;28;20460;-78
2023/05/10 09:41:18;;;;;;;1.47;1.00;;;25.90;63.30;;;;;;5068152;28;20448;-75
2023/05/10 09:43:46;;;;;;;2.40;0.60;;;25.90;63.30;;;;;;5067877;28;20458;-76
2023/05/10 09:46:16;;;;;;;0.70;0.70;;;25.90;63.30;;;;;;5070902;28;20548;-75
2023/05/10 09:48:46;;;;;;;0.73;0.73;;;25.90;63.40;;;;;;5064285;28;20456;-74
2023/05/10 09:51:21;;;;;;;0.60;0.60;;;25.90;63.30;;;;;;5070431;28;20449;-76
2023/05/10 09:54:09;;;;;;;0.70;0.70;;;25.90;63.30;;;;;;5069711;28;20448;-75
2023/05/10 09:56:39;;;;;;;1.13;1.00;;;25.90;63.20;;;;;;5070725;28;20460;-76
2023/05/10 09:59:10;;;;;;;0.80;0.80;;;25.90;63.20;;;;;;5070426;28;20472;-75
2023/05/10 10:01:40;;;;;;;1.20;0.93;;;25.90;63.20;;;;;;5069711;28;20581;-74
2023/05/10 10:04:10;;;;;;;0.90;0.90;;;25.90;63.20;;;;;;5072139;28;20455;-73
2023/05/10 10:06:39;;;;;;;0.80;0.70;;;25.90;63.30;;;;;;5066276;28;21365;-72
2023/05/10 10:09:08;;;;;;;0.80;0.80;;;25.90;63.20;;;;;;5063331;28;20479;-72
2023/05/10 10:11:37;;;;;;;0.70;0.60;;;25.90;63.20;;;;;;5065101;28;20963;-73
2023/05/10 10:14:05;;;;;;;1.50;0.93;;;25.90;63.20;;;;;;5064763;28;22172;-72
2023/05/10 10:16:34;;;;;;;1.83;0.90;;;25.90;63.10;;;;;;5051144;28;20459;-71
2023/05/10 10:19:03;;;;;;;1.03;0.70;;;25.90;63.10;;;;;;5067358;28;20453;-72
2023/05/10 10:21:33;;;;;;;0.87;0.70;;;25.90;63.10;;;;;;5078665;28;20458;-71
2023/05/10 10:24:05;;;;;;;0.80;0.80;;;25.90;63.10;;;;;;5059216;28;20579;-71
2023/05/10 10:26:36;;;;;;;0.80;0.70;;;25.90;63.10;;;;;;5063558;28;20879;-71
2023/05/10 10:29:17;;;;;;;0.77;0.50;;;25.90;63.10;;;;;;5062017;28;20465;-71
2023/05/10 10:31:52;;;;;;;0.70;0.70;;;25.90;63.20;;;;;;5073462;28;20489;-72
2023/05/10 10:34:28;;;;;;;0.50;0.50;;;25.90;63.20;;;;;;5066156;28;20542;-72
2023/05/10 10:36:57;;;;;;;2.47;0.70;;;25.90;63.10;;;;;;5069034;28;20875;-72
2023/05/10 10:39:26;;;;;;;0.73;0.70;;;25.90;63.20;;;;;;5066541;28;20483;-72
2023/05/10 10:41:55;;;;;;;0.60;0.60;;;25.90;63.10;;;;;;5079776;28;20457;-72
2023/05/10 10:44:34;;;;;;;3.17;0.60;;;25.90;63.10;;;;;;5074763;28;20540;-72
2023/05/10 10:47:08;;;;;;;0.80;0.80;;;25.90;63.10;;;;;;5071296;28;20460;-72
2023/05/10 10:49:45;;;;;;;0.93;0.60;;;25.90;63.00;;;;;;5072925;28;20444;-72
2023/05/10 10:52:34;;;;;;;0.90;0.90;;;25.90;63.00;;;;;;5074678;28;20543;-71
2023/05/10 10:55:05;;;;;;;1.07;0.70;;;25.90;63.10;;;;;;5058977;28;20476;-75
2023/05/10 10:57:34;;;;;;;0.57;0.57;;;25.90;63.10;;;;;;5069776;28;20983;-73
2023/05/10 11:00:26;;;;;;;1.00;0.57;;;25.90;63.40;;;;;;5060230;28;20481;-74
2023/05/10 11:02:57;;;;;;;0.57;0.57;;;25.90;63.40;;;;;;5065297;28;20572;-73
2023/05/10 11:05:40;;;;;;;0.67;0.60;;;25.90;63.30;;;;;;5080807;28;20459;-73
2023/05/10 11:08:13;;;;;;;1.00;0.90;;;25.90;63.30;;;;;;5075054;28;20451;-73
2023/05/10 11:10:51;;;;;;;1.10;0.80;;;26.00;63.30;;;;;;5079612;28;20534;-72
2023/05/10 11:13:30;;;;;;;0.60;0.60;;;26.00;63.40;;;;;;5071438;28;20448;-73
2023/05/10 11:15:58;;;;;;;1.80;1.40;;;25.90;63.70;;;;;;5080693;28;21309;-74
2023/05/10 11:18:28;;;;;;;0.57;0.57;;;26.00;63.50;;;;;;5079053;28;20449;-74
2023/05/10 11:21:02;;;;;;;1.47;0.80;;;26.00;63.40;;;;;;5071079;28;20454;-74
2023/05/10 11:23:32;;;;;;;1.67;0.80;;;26.00;63.30;;;;;;5074911;28;20834;-74
2023/05/10 11:26:01;;;;;;;3.33;0.97;;;26.00;63.30;;;;;;5082958;28;20487;-74
2023/05/10 11:28:29;;;;;;;2.23;0.90;;;25.90;63.40;;;;;;5075616;28;20567;-74
2023/05/10 11:30:59;;;;;;;1.00;0.90;;;25.90;63.50;;;;;;5070698;28;20502;-74
2023/05/10 11:33:27;;;;;;;0.97;0.97;;;25.90;63.40;;;;;;5068858;28;20472;-74
2023/05/10 11:35:58;;;;;;;2.27;0.60;;;25.90;63.60;;;;;;5063650;28;20864;-72
2023/05/10 11:38:26;;;;;;;1.33;0.87;;;25.90;63.40;;;;;;5074832;28;20453;-72
2023/05/10 11:40:54;;;;;;;1.37;0.80;;;25.90;63.50;;;;;;5074176;28;20469;-73
2023/05/10 11:43:28;;;;;;;0.60;0.60;;;25.90;63.60;;;;;;5077184;28;20473;-73
2023/05/10 11:45:56;;;;;;;1.93;0.80;;;25.90;63.60;;;;;;5066906;28;20515;-73
2023/05/10 11:48:24;;;;;;;1.00;0.70;;;25.90;63.50;;;;;;5075869;28;20520;-73
2023/05/10 11:50:56;;;;;;;1.20;1.10;;;25.90;63.40;;;;;;5057993;28;20461;-73
2023/05/10 11:53:28;;;;;;;1.20;1.10;;;25.90;63.30;;;;;;5068413;28;20925;-72
2023/05/10 11:55:57;;;;;;;1.50;0.83;;;25.90;63.30;;;;;;5065625;28;20472;-73
2023/05/10 11:58:26;;;;;;;0.97;0.73;;;25.90;63.20;;;;;;5079827;28;20453;-73
2023/05/10 12:00:54;;;;;;;4.60;1.30;;;26.00;63.20;;;;;;5074357;28;20454;-74
2023/05/10 12:03:22;;;;;;;0.93;0.90;;;26.00;63.10;;;;;;5076532;28;20535;-74
2023/05/10 12:05:51;;;;;;;1.70;0.80;;;26.00;63.10;;;;;;5074924;28;20532;-74
2023/05/10 12:08:22;;;;;;;1.80;0.80;;;26.00;63.10;;;;;;5066844;28;20445;-72
2023/05/10 12:10:52;;;;;;;3.17;0.60;;;26.00;63.10;;;;;;5070666;28;21039;-72
2023/05/10 12:13:21;;;;;;;0.97;0.80;;;26.00;63.10;;;;;;5067708;28;20458;-77
2023/05/10 12:15:49;;;;;;;0.93;0.77;;;26.00;63.10;;;;;;5083244;28;21006;-76
2023/05/10 12:18:24;;;;;;;1.53;0.87;;;26.00;63.20;;;;;;5076824;28;20537;-75
2023/05/10 12:20:54;;;;;;;2.83;1.00;;;26.00;63.20;;;;;;5071235;28;20522;-74
2023/05/10 12:23:22;;;;;;;0.87;0.87;;;26.00;63.30;;;;;;5072351;28;20971;-77
2023/05/10 12:25:53;;;;;;;1.03;0.87;;;26.00;63.30;;;;;;5072555;28;20570;-76
2023/05/10 12:28:21;;;;;;;0.90;0.70;;;26.00;63.30;;;;;;5071845;28;20494;-75
2023/05/10 12:30:53;;;;;;;1.47;0.90;;;26.10;63.30;;;;;;5070518;28;20453;-75
2023/05/10 12:33:22;;;;;;;0.63;0.60;;;26.10;63.30;;;;;;5054188;28;20452;-74
2023/05/10 12:35:52;;;;;;;1.37;0.80;;;26.10;63.40;;;;;;5081095;28;20502;-76
2023/05/10 12:38:29;;;;;;;0.70;0.70;;;26.00;63.40;;;;;;5058815;28;20485;-77
2023/05/10 12:41:00;;;;;;;0.83;0.50;;;26.00;63.50;;;;;;5070755;28;20447;-77
2023/05/10 12:43:28;;;;;;;0.93;0.67;;;26.00;63.50;;;;;;5065563;28;20478;-78
2023/05/10 12:45:57;;;;;;;1.77;0.90;;;26.00;63.60;;;;;;5064523;28;20541;-78
2023/05/10 12:48:25;;;;;;;0.63;0.63;;;26.00;63.50;;;;;;5069851;28;20464;-76
2023/05/10 12:50:54;;;;;;;1.43;0.77;;;26.00;63.50;;;;;;5069262;28;20487;-75
2023/05/10 12:53:22;;;;;;;2.50;0.70;;;26.10;63.50;;;;;;5078010;28;20448;-77
2023/05/10 12:55:50;;;;;;;0.50;0.50;;;26.10;63.50;;;;;;5081564;28;20550;-77
2023/05/10 12:58:20;;;;;;;0.47;0.43;;;26.10;63.50;;;;;;5071244;28;21001;-77
2023/05/10 13:00:56;;;;;;;0.70;0.70;;;26.10;63.50;;;;;;5071813;28;20445;-78
2023/05/10 13:03:24;;;;;;;0.80;0.80;;;26.10;63.50;;;;;;5078460;28;20455;-76
2023/05/10 13:05:52;;;;;;;1.63;0.73;;;26.10;63.50;;;;;;5073189;28;20866;-77